createdAt,value
2022-08-03T00:00:58.237Z,22.18
2022-08-03T00:06:03.966Z,22.06
2022-08-03T00:11:08.078Z,22.01
2022-08-03T00:16:13.351Z,21.90
2022-08-03T00:21:16.338Z,21.92
2022-08-03T00:26:19.236Z,21.86
2022-08-03T00:31:42.220Z,21.63
2022-08-03T00:36:46.290Z,21.55
2022-08-03T00:41:49.176Z,21.47
2022-08-03T00:46:53.779Z,21.40
2022-08-03T00:51:56.681Z,21.38
2022-08-03T00:57:00.560Z,21.23
2022-08-03T01:02:05.055Z,21.13
2022-08-03T01:07:12.512Z,21.08
2022-08-03T01:12:22.569Z,20.98
2022-08-03T01:17:33.043Z,20.91
2022-08-03T01:22:53.068Z,20.86
2022-08-03T01:28:04.112Z,20.80
2022-08-03T01:33:16.774Z,20.78
2022-08-03T01:38:25.617Z,20.67
2022-08-03T01:44:27.653Z,20.56
2022-08-03T01:48:57.299Z,20.46
2022-08-03T01:54:01.753Z,20.30
2022-08-03T01:59:07.137Z,20.21
2022-08-03T02:04:14.182Z,20.09
2022-08-03T02:09:21.076Z,20.09
2022-08-03T02:14:25.000Z,20.04
2022-08-03T02:19:35.258Z,20.08
2022-08-03T02:24:38.876Z,20.03
2022-08-03T02:29:43.234Z,19.93
2022-08-03T02:34:50.046Z,19.86
2022-08-03T02:39:57.591Z,19.90
2022-08-03T02:45:03.964Z,19.92
2022-08-03T02:50:10.562Z,19.85
2022-08-03T02:55:14.998Z,19.77
2022-08-03T03:00:27.465Z,19.70
2022-08-03T03:05:55.414Z,19.71
2022-08-03T03:10:56.383Z,19.71
2022-08-03T03:16:03.636Z,19.57
2022-08-03T03:21:10.885Z,19.49
2022-08-03T03:26:15.686Z,19.43
2022-08-03T03:31:18.678Z,19.40
2022-08-03T03:36:22.910Z,19.37
2022-08-03T03:41:26.199Z,19.41
2022-08-03T03:46:29.194Z,19.35
2022-08-03T03:51:33.595Z,19.21
2022-08-03T03:56:36.427Z,18.92
2022-08-03T04:01:39.726Z,18.74
2022-08-03T04:07:01.563Z,18.70
2022-08-03T04:12:05.762Z,18.77
2022-08-03T04:17:10.741Z,18.77
2022-08-03T04:22:18.847Z,18.75
2022-08-03T04:27:24.324Z,18.77
2022-08-03T04:32:28.742Z,18.62
2022-08-03T04:37:39.343Z,18.56
2022-08-03T04:42:44.094Z,18.47
2022-08-03T04:47:47.370Z,18.42
2022-08-03T04:52:51.631Z,18.50
2022-08-03T04:57:54.445Z,18.67
2022-08-03T05:02:57.694Z,18.77
2022-08-03T05:08:01.891Z,18.77
2022-08-03T05:13:11.943Z,18.72
2022-08-03T05:18:14.762Z,18.81
2022-08-03T05:23:18.975Z,18.99
2022-08-03T05:28:21.864Z,19.24
2022-08-03T05:33:24.674Z,19.43
2022-08-03T05:38:34.117Z,19.57
2022-08-03T05:43:37.970Z,19.76
2022-08-03T05:48:41.256Z,19.89
2022-08-03T05:53:45.939Z,20.04
2022-08-03T05:58:48.767Z,20.22
2022-08-03T06:03:52.327Z,20.29
2022-08-03T06:08:56.495Z,20.44
2022-08-03T06:13:59.300Z,20.62
2022-08-03T06:19:02.856Z,20.79
2022-08-03T06:24:07.650Z,20.92
2022-08-03T06:29:10.600Z,21.17
2022-08-03T06:34:34.351Z,21.35
2022-08-03T06:39:37.815Z,21.46
2022-08-03T06:44:40.606Z,21.67
2022-08-03T06:49:43.516Z,21.87
2022-08-03T06:54:51.395Z,22.08
2022-08-03T07:00:10.827Z,22.27
2022-08-03T07:05:14.969Z,22.44
2022-08-03T07:10:19.159Z,22.54
2022-08-03T07:15:54.397Z,22.61
2022-08-03T07:20:44.813Z,22.71
2022-08-03T07:25:49.013Z,22.80
2022-08-03T07:30:51.766Z,22.98
2022-08-03T07:35:54.703Z,23.15
2022-08-03T07:40:58.986Z,23.23
2022-08-03T07:46:01.832Z,23.33
2022-08-03T07:51:05.687Z,23.48
2022-08-03T07:56:11.273Z,23.62
2022-08-03T08:01:15.200Z,23.77
2022-08-03T08:06:19.206Z,23.92
2022-08-03T08:11:23.424Z,24.04
2022-08-03T08:16:26.360Z,24.23
2022-08-03T08:22:01.922Z,24.38
2022-08-03T08:26:53.454Z,24.56
2022-08-03T08:31:56.331Z,24.69
2022-08-03T08:36:59.783Z,24.85
2022-08-03T08:42:04.071Z,24.93
2022-08-03T08:47:09.185Z,25.10
2022-08-03T08:52:29.488Z,25.20
2022-08-03T08:57:43.092Z,25.32
2022-08-03T09:02:47.198Z,25.45
2022-08-03T09:07:50.484Z,25.58
2022-08-03T09:12:54.771Z,25.50
2022-08-03T09:17:59.362Z,25.89
2022-08-03T09:23:20.235Z,26.05
2022-08-03T09:29:00.434Z,26.18
2022-08-03T09:34:01.082Z,26.17
2022-08-03T09:39:06.182Z,26.12
2022-08-03T09:44:24.079Z,26.27
2022-08-03T09:49:29.255Z,26.42
2022-08-03T09:54:34.250Z,26.50
2022-08-03T09:59:41.208Z,26.61
2022-08-03T10:04:48.905Z,26.62
2022-08-03T10:09:57.510Z,26.82
2022-08-03T10:15:01.725Z,27.04
2022-08-03T10:20:06.774Z,27.27
2022-08-03T10:25:12.628Z,27.44
2022-08-03T10:30:18.083Z,27.53
2022-08-03T10:35:23.372Z,27.59
2022-08-03T10:45:53.015Z,27.69
2022-08-03T10:50:56.551Z,27.76
2022-08-03T10:56:18.198Z,27.96
2022-08-03T11:02:01.295Z,28.12
2022-08-03T11:07:23.658Z,28.34
2022-08-03T11:12:31.557Z,28.63
2022-08-03T11:17:46.449Z,28.70
2022-08-03T11:23:01.060Z,28.77
2022-08-03T11:28:28.821Z,29.03
2022-08-03T11:33:33.185Z,29.20
2022-08-03T11:38:36.071Z,29.31
2022-08-03T11:43:46.356Z,29.46
2022-08-03T11:48:52.620Z,29.68
2022-08-03T11:53:56.474Z,29.76
2022-08-03T11:59:19.865Z,29.95
2022-08-03T12:04:24.576Z,30.19
2022-08-03T12:09:27.437Z,30.20
2022-08-03T12:14:48.893Z,30.48
2022-08-03T12:19:54.979Z,30.59
2022-08-03T12:24:57.851Z,30.57
2022-08-03T12:30:01.978Z,30.88
2022-08-03T12:35:07.368Z,31.03
2022-08-03T12:40:17.825Z,31.00
2022-08-03T12:45:24.638Z,31.22
2022-08-03T12:50:33.323Z,31.44
2022-08-03T12:55:57.615Z,31.57
2022-08-03T13:00:59.862Z,31.76
2022-08-03T13:06:12.612Z,31.84
2022-08-03T13:11:53.648Z,31.94
2022-08-03T13:16:50.443Z,32.08
2022-08-03T13:22:03.859Z,32.35
2022-08-03T13:28:02.087Z,32.50
2022-08-03T13:32:30.622Z,32.69
2022-08-03T13:37:34.706Z,32.95
2022-08-03T13:42:38.974Z,33.13
2022-08-03T13:47:41.943Z,33.17
2022-08-03T13:52:46.389Z,33.32
2022-08-03T13:58:02.295Z,33.36
2022-08-03T14:03:14.718Z,33.48
2022-08-03T14:08:19.226Z,33.69
2022-08-03T14:13:22.545Z,34.02
2022-08-03T14:18:29.080Z,34.45
2022-08-03T14:23:38.677Z,35.14
2022-08-03T14:28:41.956Z,36.32
2022-08-03T14:33:44.787Z,37.89
2022-08-03T14:38:49.178Z,39.21
2022-08-03T14:44:01.634Z,40.17
2022-08-03T14:50:39.030Z,41.37
2022-08-03T14:54:30.904Z,42.04
2022-08-03T14:59:55.741Z,42.55
2022-08-03T15:04:56.761Z,42.62
2022-08-03T15:10:02.422Z,43.06
2022-08-03T15:15:05.936Z,43.71
2022-08-03T15:20:27.843Z,44.19
2022-08-03T15:26:31.582Z,44.62
2022-08-03T15:30:56.806Z,44.77
2022-08-03T15:36:00.002Z,45.29
2022-08-03T15:41:04.271Z,45.47
2022-08-03T15:51:30.512Z,45.25
2022-08-03T15:56:34.947Z,45.98
2022-08-03T16:01:37.907Z,46.11
2022-08-03T16:06:42.082Z,46.23
2022-08-03T16:11:47.836Z,46.45
2022-08-03T16:16:50.689Z,46.67
2022-08-03T16:21:53.532Z,46.93
2022-08-03T16:26:57.978Z,47.05
2022-08-03T16:32:09.292Z,46.80
2022-08-03T16:37:37.010Z,47.11
2022-08-03T16:42:38.290Z,46.90
2022-08-03T16:47:41.270Z,46.78
2022-08-03T16:52:47.027Z,46.97
2022-08-03T16:57:58.372Z,47.09
2022-08-03T17:03:19.107Z,46.76
2022-08-03T17:08:26.831Z,46.32
2022-08-03T17:13:39.955Z,46.54
2022-08-03T17:18:50.518Z,46.67
2022-08-03T17:23:58.334Z,46.68
2022-08-03T17:29:11.223Z,45.75
2022-08-03T17:34:15.487Z,45.47
2022-08-03T17:39:35.861Z,45.30
2022-08-03T17:44:47.070Z,45.23
2022-08-03T17:49:50.417Z,44.39
2022-08-03T17:55:57.228Z,43.75
2022-08-03T18:00:45.439Z,41.97
2022-08-03T18:06:10.692Z,40.31
2022-08-03T18:11:15.208Z,38.80
2022-08-03T18:16:25.583Z,37.69
2022-08-03T18:22:03.783Z,36.56
2022-08-03T18:26:52.855Z,35.73
2022-08-03T18:32:02.646Z,35.02
2022-08-03T18:37:07.803Z,34.38
2022-08-03T18:42:18.974Z,33.88
2022-08-03T18:47:53.109Z,33.47
2022-08-03T18:53:03.587Z,33.16
2022-08-03T18:58:18.028Z,32.89
2022-08-03T19:03:41.438Z,32.58
2022-08-03T19:08:50.173Z,32.35
2022-08-03T19:13:57.772Z,32.04
2022-08-03T19:19:03.132Z,31.76
2022-08-03T19:24:10.319Z,31.21
2022-08-03T19:29:15.057Z,30.94
2022-08-03T19:34:20.405Z,30.90
2022-08-03T19:39:27.462Z,30.58
2022-08-03T19:44:32.602Z,30.42
2022-08-03T19:50:04.777Z,30.22
2022-08-03T19:55:06.784Z,30.00
2022-08-03T20:00:12.565Z,29.74
2022-08-03T20:05:18.715Z,29.54
2022-08-03T20:10:22.035Z,29.46
2022-08-03T20:15:31.783Z,29.20
2022-08-03T20:20:38.574Z,28.90
2022-08-03T20:25:57.091Z,28.56
2022-08-03T20:31:02.193Z,28.22
2022-08-03T20:36:06.693Z,28.11
2022-08-03T20:41:09.587Z,28.06
2022-08-03T20:46:32.716Z,28.03
2022-08-03T20:51:50.604Z,27.89
2022-08-03T20:56:57.576Z,27.52
2022-08-03T21:02:00.871Z,27.10
2022-08-03T21:07:16.751Z,26.84
2022-08-03T21:12:26.985Z,26.93
2022-08-03T21:17:41.691Z,26.99
2022-08-03T21:22:50.257Z,26.88
2022-08-03T21:27:53.510Z,26.84
2022-08-03T21:32:57.995Z,26.73
2022-08-03T21:38:20.742Z,26.55
2022-08-03T21:43:32.894Z,26.44
2022-08-03T21:48:38.364Z,26.42
2022-08-03T21:54:03.670Z,26.30
2022-08-03T21:59:15.290Z,26.18
2022-08-03T22:04:50.124Z,26.01
2022-08-03T22:09:51.362Z,25.75
2022-08-03T22:15:00.907Z,25.56
2022-08-03T22:20:06.828Z,25.27
2022-08-03T22:25:17.029Z,25.24
2022-08-03T22:30:20.725Z,25.13
2022-08-03T22:35:26.248Z,25.11
2022-08-03T22:40:30.749Z,25.04
2022-08-03T22:46:06.113Z,24.86
2022-08-03T22:50:59.236Z,24.71
2022-08-03T22:56:04.698Z,24.60
2022-08-03T23:01:09.480Z,24.38
2022-08-03T23:06:12.667Z,24.20
2022-08-03T23:11:19.016Z,24.12
2022-08-03T23:16:29.346Z,23.96
2022-08-03T23:21:53.580Z,23.94
2022-08-03T23:26:57.614Z,23.81
2022-08-03T23:32:02.685Z,23.67
2022-08-03T23:37:06.740Z,23.48
2022-08-03T23:42:12.352Z,23.44
2022-08-03T23:47:15.340Z,23.58
2022-08-03T23:52:28.047Z,23.59
2022-08-03T23:57:40.770Z,23.49
